sensor_id;sensor_type;location;lat;lon;timestamp;P1;durP1;ratioP1;P2;durP2;ratioP2
69034;SDS011;56091;55.756;37.412;2022-07-10T00:04:14;13.20;;;8.43;;
69034;SDS011;56091;55.756;37.412;2022-07-10T00:09:15;14.27;;;8.75;;
69034;SDS011;56091;55.756;37.412;2022-07-10T00:14:16;11.63;;;7.47;;
69034;SDS011;56091;55.756;37.412;2022-07-10T00:19:17;12.13;;;7.50;;
69034;SDS011;56091;55.756;37.412;2022-07-10T00:24:17;11.53;;;7.90;;
69034;SDS011;56091;55.756;37.412;2022-07-10T00:29:18;11.80;;;7.70;;
69034;SDS011;56091;55.756;37.412;2022-07-10T00:34:19;11.23;;;6.90;;
69034;SDS011;56091;55.756;37.412;2022-07-10T00:39:20;11.57;;;7.50;;
69034;SDS011;56091;55.756;37.412;2022-07-10T00:44:21;12.07;;;7.27;;
69034;SDS011;56091;55.756;37.412;2022-07-10T00:49:24;13.97;;;7.30;;
69034;SDS011;56091;55.756;37.412;2022-07-10T00:54:25;12.52;;;8.07;;
69034;SDS011;56091;55.756;37.412;2022-07-10T00:59:26;11.70;;;8.30;;
69034;SDS011;56091;55.756;37.412;2022-07-10T01:04:28;14.77;;;9.00;;
69034;SDS011;56091;55.756;37.412;2022-07-10T01:09:28;17.77;;;9.13;;
69034;SDS011;56091;55.756;37.412;2022-07-10T01:14:30;15.82;;;9.27;;
69034;SDS011;56091;55.756;37.412;2022-07-10T01:19:31;14.23;;;9.43;;
69034;SDS011;56091;55.756;37.412;2022-07-10T01:24:31;14.70;;;9.45;;
69034;SDS011;56091;55.756;37.412;2022-07-10T01:29:32;16.00;;;9.27;;
69034;SDS011;56091;55.756;37.412;2022-07-10T01:34:36;18.13;;;10.32;;
69034;SDS011;56091;55.756;37.412;2022-07-10T01:39:37;14.73;;;10.33;;
69034;SDS011;56091;55.756;37.412;2022-07-10T01:44:38;16.02;;;10.32;;
69034;SDS011;56091;55.756;37.412;2022-07-10T01:49:39;14.83;;;10.17;;
69034;SDS011;56091;55.756;37.412;2022-07-10T01:54:39;17.10;;;11.07;;
69034;SDS011;56091;55.756;37.412;2022-07-10T01:59:41;12.83;;;7.97;;
69034;SDS011;56091;55.756;37.412;2022-07-10T02:04:41;12.57;;;7.35;;
69034;SDS011;56091;55.756;37.412;2022-07-10T02:09:45;13.10;;;8.10;;
69034;SDS011;56091;55.756;37.412;2022-07-10T02:14:46;12.35;;;7.55;;
69034;SDS011;56091;55.756;37.412;2022-07-10T02:19:47;16.83;;;7.83;;
69034;SDS011;56091;55.756;37.412;2022-07-10T02:24:47;12.07;;;7.80;;
69034;SDS011;56091;55.756;37.412;2022-07-10T02:29:48;16.48;;;8.40;;
69034;SDS011;56091;55.756;37.412;2022-07-10T02:34:49;17.10;;;8.57;;
69034;SDS011;56091;55.756;37.412;2022-07-10T02:39:50;14.02;;;8.18;;
69034;SDS011;56091;55.756;37.412;2022-07-10T02:44:51;15.53;;;7.63;;
69034;SDS011;56091;55.756;37.412;2022-07-10T02:49:52;10.82;;;7.18;;
69034;SDS011;56091;55.756;37.412;2022-07-10T02:54:53;10.27;;;6.13;;
69034;SDS011;56091;55.756;37.412;2022-07-10T02:59:53;10.23;;;6.28;;
69034;SDS011;56091;55.756;37.412;2022-07-10T03:04:54;13.40;;;8.10;;
69034;SDS011;56091;55.756;37.412;2022-07-10T03:09:55;11.83;;;6.73;;
69034;SDS011;56091;55.756;37.412;2022-07-10T03:14:56;9.80;;;6.03;;
69034;SDS011;56091;55.756;37.412;2022-07-10T03:19:56;12.53;;;6.27;;
69034;SDS011;56091;55.756;37.412;2022-07-10T03:24:57;11.30;;;6.00;;
69034;SDS011;56091;55.756;37.412;2022-07-10T03:30:01;10.70;;;6.70;;
69034;SDS011;56091;55.756;37.412;2022-07-10T03:35:09;11.77;;;6.65;;
69034;SDS011;56091;55.756;37.412;2022-07-10T03:40:09;11.87;;;6.93;;
69034;SDS011;56091;55.756;37.412;2022-07-10T03:45:11;12.90;;;8.05;;
69034;SDS011;56091;55.756;37.412;2022-07-10T03:50:11;11.37;;;7.20;;
69034;SDS011;56091;55.756;37.412;2022-07-10T03:55:12;13.80;;;7.40;;
69034;SDS011;56091;55.756;37.412;2022-07-10T04:00:13;13.23;;;7.10;;
69034;SDS011;56091;55.756;37.412;2022-07-10T04:05:14;10.98;;;6.60;;
69034;SDS011;56091;55.756;37.412;2022-07-10T04:10:15;11.60;;;7.33;;
69034;SDS011;56091;55.756;37.412;2022-07-10T04:15:16;11.65;;;7.40;;
69034;SDS011;56091;55.756;37.412;2022-07-10T04:20:17;10.47;;;7.33;;
69034;SDS011;56091;55.756;37.412;2022-07-10T04:25:19;12.88;;;7.75;;
69034;SDS011;56091;55.756;37.412;2022-07-10T04:30:20;12.67;;;7.43;;
69034;SDS011;56091;55.756;37.412;2022-07-10T04:35:20;12.53;;;8.50;;
69034;SDS011;56091;55.756;37.412;2022-07-10T04:40:22;15.23;;;8.27;;
69034;SDS011;56091;55.756;37.412;2022-07-10T04:45:22;12.70;;;8.93;;
69034;SDS011;56091;55.756;37.412;2022-07-10T04:50:23;17.77;;;11.32;;
69034;SDS011;56091;55.756;37.412;2022-07-10T04:55:24;16.47;;;9.93;;
69034;SDS011;56091;55.756;37.412;2022-07-10T05:00:25;14.07;;;9.65;;
69034;SDS011;56091;55.756;37.412;2022-07-10T05:05:26;16.90;;;9.77;;
69034;SDS011;56091;55.756;37.412;2022-07-10T05:10:27;17.63;;;9.18;;
69034;SDS011;56091;55.756;37.412;2022-07-10T05:15:27;14.27;;;8.67;;
69034;SDS011;56091;55.756;37.412;2022-07-10T05:20:28;14.70;;;8.70;;
69034;SDS011;56091;55.756;37.412;2022-07-10T05:25:29;20.47;;;10.90;;
69034;SDS011;56091;55.756;37.412;2022-07-10T05:30:31;14.52;;;8.63;;
69034;SDS011;56091;55.756;37.412;2022-07-10T05:35:32;16.30;;;9.00;;
69034;SDS011;56091;55.756;37.412;2022-07-10T05:40:33;14.88;;;9.18;;
69034;SDS011;56091;55.756;37.412;2022-07-10T05:45:35;14.17;;;8.47;;
69034;SDS011;56091;55.756;37.412;2022-07-10T05:50:36;20.17;;;9.00;;
69034;SDS011;56091;55.756;37.412;2022-07-10T05:55:36;15.50;;;9.10;;
69034;SDS011;56091;55.756;37.412;2022-07-10T06:00:37;13.33;;;8.83;;
69034;SDS011;56091;55.756;37.412;2022-07-10T06:05:38;19.33;;;9.60;;
69034;SDS011;56091;55.756;37.412;2022-07-10T06:10:39;16.45;;;8.32;;
69034;SDS011;56091;55.756;37.412;2022-07-10T06:15:40;19.37;;;8.87;;
69034;SDS011;56091;55.756;37.412;2022-07-10T06:20:41;14.20;;;9.43;;
69034;SDS011;56091;55.756;37.412;2022-07-10T06:25:42;17.97;;;10.07;;
69034;SDS011;56091;55.756;37.412;2022-07-10T06:30:43;18.13;;;9.73;;
69034;SDS011;56091;55.756;37.412;2022-07-10T06:35:45;16.27;;;9.57;;
69034;SDS011;56091;55.756;37.412;2022-07-10T06:40:46;19.98;;;10.00;;
69034;SDS011;56091;55.756;37.412;2022-07-10T06:45:48;18.47;;;9.80;;
69034;SDS011;56091;55.756;37.412;2022-07-10T06:50:48;16.63;;;9.90;;
69034;SDS011;56091;55.756;37.412;2022-07-10T06:55:50;18.93;;;9.97;;
69034;SDS011;56091;55.756;37.412;2022-07-10T07:00:51;16.48;;;9.75;;
69034;SDS011;56091;55.756;37.412;2022-07-10T07:05:52;18.43;;;10.43;;
69034;SDS011;56091;55.756;37.412;2022-07-10T07:10:56;19.50;;;10.77;;
69034;SDS011;56091;55.756;37.412;2022-07-10T07:15:57;19.00;;;10.98;;
69034;SDS011;56091;55.756;37.412;2022-07-10T07:21:01;18.07;;;10.87;;
69034;SDS011;56091;55.756;37.412;2022-07-10T07:26:30;18.67;;;10.90;;
69034;SDS011;56091;55.756;37.412;2022-07-10T07:31:31;19.00;;;11.30;;
69034;SDS011;56091;55.756;37.412;2022-07-10T07:36:32;18.55;;;11.55;;
69034;SDS011;56091;55.756;37.412;2022-07-10T07:41:33;19.00;;;12.07;;
69034;SDS011;56091;55.756;37.412;2022-07-10T07:46:34;18.13;;;11.63;;
69034;SDS011;56091;55.756;37.412;2022-07-10T07:51:35;19.00;;;11.50;;
69034;SDS011;56091;55.756;37.412;2022-07-10T07:56:39;15.98;;;9.43;;
69034;SDS011;56091;55.756;37.412;2022-07-10T08:01:40;14.73;;;9.07;;
69034;SDS011;56091;55.756;37.412;2022-07-10T08:06:44;15.95;;;9.20;;
69034;SDS011;56091;55.756;37.412;2022-07-10T08:11:45;13.87;;;9.13;;
69034;SDS011;56091;55.756;37.412;2022-07-10T08:16:46;12.43;;;9.07;;
69034;SDS011;56091;55.756;37.412;2022-07-10T08:21:47;13.97;;;9.10;;
69034;SDS011;56091;55.756;37.412;2022-07-10T08:26:48;13.05;;;9.15;;
69034;SDS011;56091;55.756;37.412;2022-07-10T08:31:52;16.53;;;8.83;;
69034;SDS011;56091;55.756;37.412;2022-07-10T08:36:56;16.63;;;9.80;;
69034;SDS011;56091;55.756;37.412;2022-07-10T08:41:57;16.50;;;9.50;;
69034;SDS011;56091;55.756;37.412;2022-07-10T08:46:58;15.65;;;10.10;;
69034;SDS011;56091;55.756;37.412;2022-07-10T08:52:06;15.40;;;9.67;;
69034;SDS011;56091;55.756;37.412;2022-07-10T08:57:13;16.85;;;9.65;;
69034;SDS011;56091;55.756;37.412;2022-07-10T09:02:16;19.23;;;9.90;;
69034;SDS011;56091;55.756;37.412;2022-07-10T09:07:16;18.45;;;9.77;;
69034;SDS011;56091;55.756;37.412;2022-07-10T09:12:18;15.73;;;9.47;;
69034;SDS011;56091;55.756;37.412;2022-07-10T09:17:19;16.80;;;9.48;;
69034;SDS011;56091;55.756;37.412;2022-07-10T09:22:20;17.20;;;9.53;;
69034;SDS011;56091;55.756;37.412;2022-07-10T09:27:22;13.10;;;9.13;;
69034;SDS011;56091;55.756;37.412;2022-07-10T09:32:23;14.27;;;8.10;;
69034;SDS011;56091;55.756;37.412;2022-07-10T09:42:32;13.83;;;7.47;;
69034;SDS011;56091;55.756;37.412;2022-07-10T09:47:34;13.32;;;6.60;;
69034;SDS011;56091;55.756;37.412;2022-07-10T09:52:35;12.77;;;6.90;;
69034;SDS011;56091;55.756;37.412;2022-07-10T09:57:38;11.70;;;6.80;;
69034;SDS011;56091;55.756;37.412;2022-07-10T10:02:39;12.63;;;6.60;;
69034;SDS011;56091;55.756;37.412;2022-07-10T10:07:40;11.50;;;6.93;;
69034;SDS011;56091;55.756;37.412;2022-07-10T10:12:46;9.90;;;6.83;;
69034;SDS011;56091;55.756;37.412;2022-07-10T10:17:53;10.43;;;6.05;;
69034;SDS011;56091;55.756;37.412;2022-07-10T10:22:55;15.17;;;6.40;;
69034;SDS011;56091;55.756;37.412;2022-07-10T10:27:57;12.43;;;5.88;;
69034;SDS011;56091;55.756;37.412;2022-07-10T10:33:01;13.37;;;6.03;;
69034;SDS011;56091;55.756;37.412;2022-07-10T10:38:02;12.25;;;5.78;;
69034;SDS011;56091;55.756;37.412;2022-07-10T10:43:19;10.37;;;5.40;;
69034;SDS011;56091;55.756;37.412;2022-07-10T10:48:21;8.70;;;5.47;;
69034;SDS011;56091;55.756;37.412;2022-07-10T10:53:22;9.80;;;5.30;;
69034;SDS011;56091;55.756;37.412;2022-07-10T10:58:27;10.83;;;4.93;;
69034;SDS011;56091;55.756;37.412;2022-07-10T11:03:36;10.02;;;4.50;;
69034;SDS011;56091;55.756;37.412;2022-07-10T11:08:41;7.53;;;4.40;;
69034;SDS011;56091;55.756;37.412;2022-07-10T11:13:44;10.60;;;4.05;;
69034;SDS011;56091;55.756;37.412;2022-07-10T11:18:50;9.07;;;4.50;;
69034;SDS011;56091;55.756;37.412;2022-07-10T11:23:56;10.73;;;4.72;;
69034;SDS011;56091;55.756;37.412;2022-07-10T11:29:11;9.43;;;4.53;;
69034;SDS011;56091;55.756;37.412;2022-07-10T11:34:12;8.60;;;4.47;;
69034;SDS011;56091;55.756;37.412;2022-07-10T11:39:14;9.17;;;5.20;;
69034;SDS011;56091;55.756;37.412;2022-07-10T11:44:16;8.82;;;4.68;;
69034;SDS011;56091;55.756;37.412;2022-07-10T11:49:18;8.23;;;4.30;;
69034;SDS011;56091;55.756;37.412;2022-07-10T11:54:18;8.93;;;4.70;;
69034;SDS011;56091;55.756;37.412;2022-07-10T11:59:23;10.52;;;4.53;;
69034;SDS011;56091;55.756;37.412;2022-07-10T12:04:28;9.33;;;4.73;;
69034;SDS011;56091;55.756;37.412;2022-07-10T12:09:29;9.27;;;4.82;;
69034;SDS011;56091;55.756;37.412;2022-07-10T12:14:30;11.67;;;4.90;;
69034;SDS011;56091;55.756;37.412;2022-07-10T12:19:36;9.43;;;4.68;;
69034;SDS011;56091;55.756;37.412;2022-07-10T12:24:38;10.20;;;5.50;;
69034;SDS011;56091;55.756;37.412;2022-07-10T12:29:39;13.67;;;6.80;;
69034;SDS011;56091;55.756;37.412;2022-07-10T12:34:40;13.77;;;6.70;;
69034;SDS011;56091;55.756;37.412;2022-07-10T12:39:50;12.07;;;7.30;;
69034;SDS011;56091;55.756;37.412;2022-07-10T12:50:10;9.63;;;6.88;;
69034;SDS011;56091;55.756;37.412;2022-07-10T12:55:13;11.77;;;7.40;;
69034;SDS011;56091;55.756;37.412;2022-07-10T13:00:15;9.48;;;5.70;;
69034;SDS011;56091;55.756;37.412;2022-07-10T13:05:38;9.53;;;5.50;;
69034;SDS011;56091;55.756;37.412;2022-07-10T13:10:40;8.73;;;4.30;;
69034;SDS011;56091;55.756;37.412;2022-07-10T13:15:42;11.88;;;4.40;;
69034;SDS011;56091;55.756;37.412;2022-07-10T13:20:53;9.37;;;3.80;;
69034;SDS011;56091;55.756;37.412;2022-07-10T13:25:55;10.63;;;5.00;;
69034;SDS011;56091;55.756;37.412;2022-07-10T13:30:57;9.00;;;4.90;;
69034;SDS011;56091;55.756;37.412;2022-07-10T13:36:01;8.27;;;4.30;;
69034;SDS011;56091;55.756;37.412;2022-07-10T13:41:03;7.17;;;3.93;;
69034;SDS011;56091;55.756;37.412;2022-07-10T13:46:04;9.48;;;4.22;;
69034;SDS011;56091;55.756;37.412;2022-07-10T13:51:05;8.10;;;4.40;;
69034;SDS011;56091;55.756;37.412;2022-07-10T13:56:06;8.15;;;3.90;;
69034;SDS011;56091;55.756;37.412;2022-07-10T14:01:08;9.70;;;4.40;;
69034;SDS011;56091;55.756;37.412;2022-07-10T14:06:08;9.15;;;4.38;;
69034;SDS011;56091;55.756;37.412;2022-07-10T14:11:09;10.00;;;4.40;;
69034;SDS011;56091;55.756;37.412;2022-07-10T14:16:10;6.75;;;4.30;;
69034;SDS011;56091;55.756;37.412;2022-07-10T14:21:13;15.73;;;4.23;;
69034;SDS011;56091;55.756;37.412;2022-07-10T14:26:14;11.00;;;4.60;;
69034;SDS011;56091;55.756;37.412;2022-07-10T14:31:15;10.00;;;4.90;;
69034;SDS011;56091;55.756;37.412;2022-07-10T14:36:16;9.68;;;4.55;;
69034;SDS011;56091;55.756;37.412;2022-07-10T14:41:20;20.33;;;3.03;;
69034;SDS011;56091;55.756;37.412;2022-07-10T14:46:21;22.67;;;2.80;;
69034;SDS011;56091;55.756;37.412;2022-07-10T14:51:22;16.93;;;3.23;;
69034;SDS011;56091;55.756;37.412;2022-07-10T14:56:23;18.00;;;4.20;;
69034;SDS011;56091;55.756;37.412;2022-07-10T15:01:24;12.70;;;5.57;;
69034;SDS011;56091;55.756;37.412;2022-07-10T15:06:25;15.65;;;5.70;;
69034;SDS011;56091;55.756;37.412;2022-07-10T15:11:26;14.77;;;6.20;;
69034;SDS011;56091;55.756;37.412;2022-07-10T15:16:27;11.50;;;5.68;;
69034;SDS011;56091;55.756;37.412;2022-07-10T15:21:29;12.50;;;6.73;;
69034;SDS011;56091;55.756;37.412;2022-07-10T15:26:31;10.35;;;5.70;;
69034;SDS011;56091;55.756;37.412;2022-07-10T15:31:32;10.90;;;5.53;;
69034;SDS011;56091;55.756;37.412;2022-07-10T15:36:33;13.50;;;6.18;;
69034;SDS011;56091;55.756;37.412;2022-07-10T15:41:34;9.10;;;5.20;;
69034;SDS011;56091;55.756;37.412;2022-07-10T15:46:35;9.98;;;5.20;;
69034;SDS011;56091;55.756;37.412;2022-07-10T15:51:37;10.53;;;5.30;;
69034;SDS011;56091;55.756;37.412;2022-07-10T15:56:38;9.45;;;4.57;;
69034;SDS011;56091;55.756;37.412;2022-07-10T16:01:39;8.07;;;3.80;;
69034;SDS011;56091;55.756;37.412;2022-07-10T16:06:39;15.33;;;6.30;;
69034;SDS011;56091;55.756;37.412;2022-07-10T16:11:40;15.60;;;6.32;;
69034;SDS011;56091;55.756;37.412;2022-07-10T16:16:41;13.17;;;6.03;;
69034;SDS011;56091;55.756;37.412;2022-07-10T16:21:48;14.30;;;6.18;;
69034;SDS011;56091;55.756;37.412;2022-07-10T16:26:49;16.63;;;5.30;;
69034;SDS011;56091;55.756;37.412;2022-07-10T16:31:50;13.48;;;7.03;;
69034;SDS011;56091;55.756;37.412;2022-07-10T16:36:51;15.90;;;7.77;;
69034;SDS011;56091;55.756;37.412;2022-07-10T16:41:52;14.32;;;7.65;;
69034;SDS011;56091;55.756;37.412;2022-07-10T16:46:53;13.83;;;6.83;;
69034;SDS011;56091;55.756;37.412;2022-07-10T16:51:54;16.25;;;7.35;;
69034;SDS011;56091;55.756;37.412;2022-07-10T16:56:55;14.60;;;6.93;;
69034;SDS011;56091;55.756;37.412;2022-07-10T17:01:57;19.63;;;8.43;;
69034;SDS011;56091;55.756;37.412;2022-07-10T17:06:58;13.73;;;6.77;;
69034;SDS011;56091;55.756;37.412;2022-07-10T17:11:59;13.65;;;7.20;;
69034;SDS011;56091;55.756;37.412;2022-07-10T17:16:59;18.20;;;8.00;;
69034;SDS011;56091;55.756;37.412;2022-07-10T17:22:02;17.75;;;6.82;;
69034;SDS011;56091;55.756;37.412;2022-07-10T17:27:03;16.20;;;7.77;;
69034;SDS011;56091;55.756;37.412;2022-07-10T17:32:04;17.75;;;8.75;;
69034;SDS011;56091;55.756;37.412;2022-07-10T17:37:05;16.43;;;8.70;;
69034;SDS011;56091;55.756;37.412;2022-07-10T17:42:07;16.80;;;7.35;;
69034;SDS011;56091;55.756;37.412;2022-07-10T17:47:08;13.60;;;7.50;;
69034;SDS011;56091;55.756;37.412;2022-07-10T17:52:09;16.93;;;7.73;;
69034;SDS011;56091;55.756;37.412;2022-07-10T17:57:09;15.07;;;7.22;;
69034;SDS011;56091;55.756;37.412;2022-07-10T18:02:13;12.50;;;7.30;;
69034;SDS011;56091;55.756;37.412;2022-07-10T18:07:17;13.38;;;7.10;;
69034;SDS011;56091;55.756;37.412;2022-07-10T18:12:17;14.87;;;7.10;;
69034;SDS011;56091;55.756;37.412;2022-07-10T18:17:18;15.45;;;6.90;;
69034;SDS011;56091;55.756;37.412;2022-07-10T18:22:19;16.33;;;7.50;;
69034;SDS011;56091;55.756;37.412;2022-07-10T18:27:20;20.38;;;8.52;;
69034;SDS011;56091;55.756;37.412;2022-07-10T18:32:24;16.50;;;8.30;;
69034;SDS011;56091;55.756;37.412;2022-07-10T18:37:45;18.52;;;9.05;;
69034;SDS011;56091;55.756;37.412;2022-07-10T18:42:46;15.23;;;8.30;;
69034;SDS011;56091;55.756;37.412;2022-07-10T18:47:47;15.02;;;8.18;;
69034;SDS011;56091;55.756;37.412;2022-07-10T18:52:49;12.90;;;6.60;;
69034;SDS011;56091;55.756;37.412;2022-07-10T18:57:49;12.38;;;6.25;;
69034;SDS011;56091;55.756;37.412;2022-07-10T19:02:50;12.17;;;6.53;;
69034;SDS011;56091;55.756;37.412;2022-07-10T19:07:51;13.50;;;6.30;;
69034;SDS011;56091;55.756;37.412;2022-07-10T19:12:54;17.37;;;6.50;;
69034;SDS011;56091;55.756;37.412;2022-07-10T19:17:58;17.90;;;6.95;;
69034;SDS011;56091;55.756;37.412;2022-07-10T19:22:59;11.33;;;5.70;;
69034;SDS011;56091;55.756;37.412;2022-07-10T19:28:00;15.80;;;6.05;;
69034;SDS011;56091;55.756;37.412;2022-07-10T19:33:03;11.30;;;5.87;;
69034;SDS011;56091;55.756;37.412;2022-07-10T19:38:05;12.35;;;5.95;;
69034;SDS011;56091;55.756;37.412;2022-07-10T19:43:05;13.53;;;6.40;;
69034;SDS011;56091;55.756;37.412;2022-07-10T19:48:08;14.38;;;6.40;;
69034;SDS011;56091;55.756;37.412;2022-07-10T19:53:09;16.80;;;6.73;;
69034;SDS011;56091;55.756;37.412;2022-07-10T19:58:10;12.80;;;6.85;;
69034;SDS011;56091;55.756;37.412;2022-07-10T20:03:11;15.80;;;6.37;;
69034;SDS011;56091;55.756;37.412;2022-07-10T20:08:12;11.07;;;7.00;;
69034;SDS011;56091;55.756;37.412;2022-07-10T20:13:13;11.43;;;6.27;;
69034;SDS011;56091;55.756;37.412;2022-07-10T20:18:14;10.73;;;5.93;;
69034;SDS011;56091;55.756;37.412;2022-07-10T20:23:15;9.93;;;5.47;;
69034;SDS011;56091;55.756;37.412;2022-07-10T20:28:16;11.70;;;5.68;;
69034;SDS011;56091;55.756;37.412;2022-07-10T20:33:17;10.80;;;6.20;;
69034;SDS011;56091;55.756;37.412;2022-07-10T20:38:18;11.63;;;5.37;;
69034;SDS011;56091;55.756;37.412;2022-07-10T20:43:19;9.90;;;5.60;;
69034;SDS011;56091;55.756;37.412;2022-07-10T20:48:20;10.57;;;5.57;;
69034;SDS011;56091;55.756;37.412;2022-07-10T20:53:28;10.75;;;5.85;;
69034;SDS011;56091;55.756;37.412;2022-07-10T20:58:29;10.33;;;6.20;;
69034;SDS011;56091;55.756;37.412;2022-07-10T21:03:32;10.77;;;5.90;;
69034;SDS011;56091;55.756;37.412;2022-07-10T21:08:34;11.57;;;6.87;;
69034;SDS011;56091;55.756;37.412;2022-07-10T21:13:35;14.45;;;6.57;;
69034;SDS011;56091;55.756;37.412;2022-07-10T21:18:38;13.43;;;6.87;;
69034;SDS011;56091;55.756;37.412;2022-07-10T21:23:39;15.68;;;7.55;;
69034;SDS011;56091;55.756;37.412;2022-07-10T21:28:40;14.93;;;7.80;;
69034;SDS011;56091;55.756;37.412;2022-07-10T21:33:41;16.27;;;7.75;;
69034;SDS011;56091;55.756;37.412;2022-07-10T21:38:42;12.70;;;7.90;;
69034;SDS011;56091;55.756;37.412;2022-07-10T21:43:42;14.45;;;7.80;;
69034;SDS011;56091;55.756;37.412;2022-07-10T21:48:43;13.50;;;7.77;;
69034;SDS011;56091;55.756;37.412;2022-07-10T21:53:44;13.27;;;7.85;;
69034;SDS011;56091;55.756;37.412;2022-07-10T21:58:45;14.80;;;8.40;;
69034;SDS011;56091;55.756;37.412;2022-07-10T22:03:46;17.70;;;8.37;;
69034;SDS011;56091;55.756;37.412;2022-07-10T22:08:47;17.90;;;7.67;;
69034;SDS011;56091;55.756;37.412;2022-07-10T22:13:48;12.30;;;7.55;;
69034;SDS011;56091;55.756;37.412;2022-07-10T22:18:49;17.10;;;7.67;;
69034;SDS011;56091;55.756;37.412;2022-07-10T22:23:50;13.03;;;7.77;;
69034;SDS011;56091;55.756;37.412;2022-07-10T22:28:51;14.57;;;8.40;;
69034;SDS011;56091;55.756;37.412;2022-07-10T22:33:54;13.37;;;8.37;;
69034;SDS011;56091;55.756;37.412;2022-07-10T22:38:57;15.75;;;8.57;;
69034;SDS011;56091;55.756;37.412;2022-07-10T22:43:58;13.90;;;8.80;;
69034;SDS011;56091;55.756;37.412;2022-07-10T22:48:59;14.98;;;8.63;;
69034;SDS011;56091;55.756;37.412;2022-07-10T22:54:00;14.40;;;8.47;;
69034;SDS011;56091;55.756;37.412;2022-07-10T22:59:05;17.08;;;8.63;;
69034;SDS011;56091;55.756;37.412;2022-07-10T23:04:08;13.53;;;8.80;;
69034;SDS011;56091;55.756;37.412;2022-07-10T23:09:09;18.75;;;8.40;;
69034;SDS011;56091;55.756;37.412;2022-07-10T23:14:13;15.47;;;9.03;;
69034;SDS011;56091;55.756;37.412;2022-07-10T23:19:14;14.90;;;9.02;;
69034;SDS011;56091;55.756;37.412;2022-07-10T23:24:15;16.60;;;10.07;;
69034;SDS011;56091;55.756;37.412;2022-07-10T23:29:16;16.52;;;9.38;;
69034;SDS011;56091;55.756;37.412;2022-07-10T23:34:16;20.30;;;10.07;;
69034;SDS011;56091;55.756;37.412;2022-07-10T23:39:17;15.07;;;9.65;;
69034;SDS011;56091;55.756;37.412;2022-07-10T23:44:18;20.40;;;10.00;;
69034;SDS011;56091;55.756;37.412;2022-07-10T23:49:19;15.70;;;9.40;;
69034;SDS011;56091;55.756;37.412;2022-07-10T23:54:39;18.80;;;9.20;;
69034;SDS011;56091;55.756;37.412;2022-07-10T23:59:48;15.73;;;9.07;;
